Close

Questo sito utlizza cookie. Può leggere come li usiamo nella nostra Privacy Policy.

Ronchi Tower
Ronchi Tower

From Facebook

METAR & TAF

2020/10/24 05:20 LIPQ 240520Z AUTO 15004KT 9999 OVC019/// 17/15 Q1015
2020/10/24 06:21 TAF LIPQ 240500Z 2406/2506 VRB05KT 6000 SCT020 TEMPO 2412/2418 SHRA
2020/10/24 05:20 LIPZ 240520Z 27004KT 1500 BR BKN012 14/13 Q1016 NOSIG
2020/10/24 06:21 TAF LIPZ 240500Z 2406/2512 VRB05KT 2000 BR OVC012 BECMG 2408/2410 6000 BKN015 TEMPO 2412/2418 TSRA BECMG 2421/2423 3000 BR TEMPO 2500/2507 0400 FG BKN008
2020/10/24 05:20 LIPH 240520Z 25002KT 2000 BR OVC010 14/14 Q1016
2020/10/24 06:21 TAF LIPH 240500Z 2406/2506 VRB05KT 2000 BR BKN010 BECMG 2406/2408 6000 BKN020 TEMPO 2412/2418 TSRA BECMG 2421/2423 2000 BR TEMPO 2501/2506 0400 FG BKN008
2020/10/24 05:20 LIRF 240520Z 15007KT 9000 -RA SCT010 BKN030 18/17 Q1019 NOSIG
2020/10/24 06:21 TAF LIRF 240500Z 2406/2512 16010KT 9999 SCT030 TEMPO 2406/2412 TSRA BECMG 2407/2409 24012KT BECMG 2415/2418 VRB05KT BECMG 2509/2511 26010KT
2020/10/24 05:20 LIML 240520Z 21003KT 1500 BR SCT005 BKN030 13/13 Q1017 NOSIG
2020/10/24 06:21 TAF LIML 240500Z 2406/2506 VRB05KT 1600 BR BKN010 BECMG 2409/2411 6000 SCT050
2020/10/24 05:50 EDDM 240550Z 24008KT 3500 RADZ FEW004 BKN008 11/11 Q1017 TEMPO 6000 NSW SCT008 BKN012
2020/10/24 06:27 TAF EDDM 240500Z 2406/2512 25008KT 9000 SCT012 BKN020 TEMPO 2406/2410 4000 RADZ BKN012 BECMG 2417/2419 VRB03KT BECMG 2423/2502 0600 FG TEMPO 2504/2508 0300 FG VV002 BECMG 2506/2508 10005KT BECMG 2508/2510 6000 BKN005 BECMG 2510/2512 FEW012
2020/10/24 05:50 EGSS 240550Z AUTO 18010KT 9999 NCD 08/07 Q1006
2020/10/24 06:06 TAF EGSS 240501Z 2406/2512 20012KT 9999 SCT025 BECMG 2407/2410 19020G30KT PROB30 TEMPO 2409/2416 8000 -RA BKN014 TEMPO 2416/2501 6000 RA BKN012 PROB40 TEMPO 2416/2419 20024G40KT 3000 +SHRA BECMG 2417/2420 22012KT PROB40 TEMPO 2420/2501 23018G30KT 3000 +SHRA
2020/10/24 05:50 EDDF 240550Z 24002KT 6000 BCFG FEW001 SCT028 08/08 Q1016 BECMG 22007KT
2020/10/24 06:28 TAF EDDF 240500Z 2406/2512 VRB03KT 9999 SCT030 BECMG 2406/2408 22006KT PROB30 TEMPO 2406/2408 0600 FG BKN001 BECMG 2408/2410 23012KT TEMPO 2408/2420 BKN030 PROB30 TEMPO 2411/2416 23015G25KT BECMG 2418/2421 20006KT

FlightRadar24

Radar Meteo

Traffic data

Agosto 2018

Passeggeri: 63892-12,9% (rank: 23)
Nazionali 34490 -19,8%
Internazionali 29193 -3,0%

Movimenti: 1307+11,7% (rank: 24)
Tot commerciale 556 -7,2%
Aviazione generale 751 +31,5%

Cargo (tons): 20,6+62,5% (rank: 21)

Gennaio - Agosto 2018

Passeggeri: 507438-3,5% (rank: 23)
Nazionali 322655 -4,9%
Internazionali 182927 -0,7%

Movimenti: 10366-4,25 (rank: 22)
Tot commerciale 5328 -11,0%
Aviazione generale 5038 +4,2%

Cargo (tons): 299,2+61,9% (rank: 20)

Photo

Robinson R22 Beta II
Robinson R22 Beta II
Distinct views: 12
Reims F152
Reims F152
Distinct views: 47
Douglas DC-6B
Douglas DC-6B
Distinct views: 174
McDonnell Douglas MD-82
McDonnell Douglas MD-82
Total views: 5169